Hlavní strana
METAR-TAF:

METAR-TAF

Letiště :

Florianópolis, Santa Catarina, Brazílie

zeměpisná šířka: 27-40S, zeměpisná délka: 048-33W, výška: 5 m

Aktuální stav počasí

Zpráva byla vytvořena před 52 minutami, v 22:00 UTC
Jihojihovýchodní vítr 8 kt
Teplota 27°C
Vlhkost vzduchu 62%
Tlak 1016 hPa
Viditelnost 10 km a více
Oblačno až skoro zataženo ve výšce 4000 ft

METAR: SBFL 152200Z 16008KT 9999 BKN040 27/19 Q1016 WS R14

Čas: 20:52 (22:52 UTC)

Předpověď počasí

Zpráva byla vytvořena před 7 hodinami a 37 minutami, v 15:15 UTC
Předpověď platná od 15 v 18 UTC do 16 v 18 UTC
Jihovýchodní vítr 7 kt
Viditelnost 10 km a více
Skoro jasno ve výšce 3000 ft
Změna
od 16 v 00 UTC do 16 v 02 UTC
Jihozápadní vítr 5 kt
Polojasno ve výšce 3000 ft
Změna
od 16 v 12 UTC do 16 v 14 UTC
Východní vítr 7 kt
Skoro jasno ve výšce 3500 ft

TAF: SBFL 151515Z 1518/1618 14007KT 9999 FEW030 TX31/1518Z TN23/1608Z BECMG 1600/1602 22005KT SCT030 BECMG 1612/1614 08007KT FEW035 RMK PDW

Stav a předpovědi počasí z více než 4 000 letišť (zprávy METAR a TAF).

Červené a žluté tečky na mapě představují dostupné meteorologické stanice.

Když kurzor umístíte na tečku, zobrazí se název stanice.

Pak kliknutím zobrazíte stav a předpověď počasí.

Chcete-li změnit mapu, kliknutím na zelené tlačítko se znaménkem +mapu přiblížíte, kliknutím na zelené tlačítko se znaménkem – mapu oddálíte a kliknutím na zelené šipky přejdete na sousední mapy.


METAR-TAF: